createdAt,value
2018-04-08T00:02:34.415Z,95108.66
2018-04-08T00:17:34.270Z,95113.56
2018-04-08T00:32:37.255Z,95117.23
2018-04-08T00:47:34.638Z,95120.16
2018-04-08T01:02:34.730Z,95121.27
2018-04-08T01:17:34.076Z,95115.70
2018-04-08T01:32:34.478Z,95107.37
2018-04-08T01:47:34.118Z,95092.89
2018-04-08T02:02:34.858Z,95092.16
2018-04-08T02:17:34.781Z,95090.41
2018-04-08T02:32:34.684Z,95084.40
2018-04-08T02:47:34.814Z,95081.70
2018-04-08T03:02:35.155Z,95084.02
2018-04-08T03:17:35.502Z,95082.83
2018-04-08T03:32:35.118Z,95094.47
2018-04-08T03:47:34.682Z,95090.97
2018-04-08T04:02:34.357Z,95101.95
2018-04-08T04:17:34.974Z,95124.44
2018-04-08T04:32:35.556Z,95119.75
2018-04-08T04:47:34.026Z,95124.11
2018-04-08T05:02:34.825Z,95118.44
2018-04-08T05:17:34.950Z,95128.09
2018-04-08T05:32:34.386Z,95127.04
2018-04-08T05:47:36.802Z,95140.66
2018-04-08T06:02:34.874Z,95145.53
2018-04-08T06:17:34.626Z,95152.01
2018-04-08T06:32:34.627Z,95152.78
2018-04-08T06:47:34.997Z,95145.72
2018-04-08T07:02:35.017Z,95149.80
2018-04-08T07:17:34.686Z,95140.20
2018-04-08T07:32:34.845Z,95144.88
2018-04-08T07:47:35.232Z,95142.93
2018-04-08T08:02:35.235Z,95131.28
2018-04-08T08:17:34.896Z,95122.68
2018-04-08T08:32:35.064Z,95125.48
2018-04-08T08:47:34.789Z,95116.40
2018-04-08T09:02:36.408Z,95100.02
2018-04-08T09:17:34.395Z,95075.86
2018-04-08T09:32:34.272Z,95053.76
2018-04-08T09:47:34.450Z,95044.86
2018-04-08T10:02:37.336Z,95024.41
2018-04-08T10:17:34.528Z,95016.34
2018-04-08T10:32:34.513Z,95009.33
2018-04-08T10:47:36.434Z,94995.27
2018-04-08T11:02:35.289Z,94977.50
2018-04-08T11:17:35.018Z,94970.48
2018-04-08T11:32:34.782Z,94950.52
2018-04-08T11:47:35.118Z,94934.22
2018-04-08T12:02:34.126Z,94926.73
2018-04-08T12:17:33.821Z,94904.94
2018-04-08T12:32:35.642Z,94903.16
2018-04-08T12:47:34.427Z,94879.70
2018-04-08T13:02:36.402Z,94855.87
2018-04-08T13:17:34.098Z,94854.74
2018-04-08T13:32:34.221Z,94837.84
2018-04-08T13:47:34.671Z,94828.90
2018-04-08T14:02:34.627Z,94822.84
2018-04-08T14:17:34.744Z,94825.39
2018-04-08T14:32:34.294Z,94824.27
2018-04-08T14:47:34.747Z,94817.24
2018-04-08T15:02:34.903Z,94824.78
2018-04-08T15:17:34.746Z,94822.45
2018-04-08T15:32:35.271Z,94830.52
2018-04-08T15:47:33.958Z,94833.31
2018-04-08T16:02:35.179Z,94835.50
2018-04-08T16:17:35.342Z,94847.17
2018-04-08T16:32:36.922Z,94846.82
2018-04-08T16:47:35.831Z,94841.47
2018-04-08T17:02:36.429Z,94847.25
2018-04-08T17:17:34.319Z,94852.70
2018-04-08T17:32:33.175Z,94877.89
2018-04-08T17:47:37.822Z,94884.11
2018-04-08T18:02:34.714Z,94905.42
2018-04-08T18:17:34.530Z,94908.52
2018-04-08T18:32:34.546Z,94912.27
2018-04-08T18:47:34.795Z,94930.54
2018-04-08T19:02:34.949Z,94929.41
2018-04-08T19:17:40.256Z,94915.48
2018-04-08T19:32:34.639Z,94907.38
2018-04-08T19:47:34.066Z,94910.53
2018-04-08T20:02:36.260Z,94918.08
2018-04-08T20:17:33.982Z,94905.34
2018-04-08T20:32:34.159Z,94920.06
2018-04-08T20:47:34.877Z,94912.15
2018-04-08T21:02:36.790Z,94903.64
2018-04-08T21:17:34.662Z,94889.66
2018-04-08T21:32:34.141Z,94900.06
2018-04-08T21:47:34.526Z,94920.77
2018-04-08T22:02:36.657Z,94885.73
2018-04-08T22:17:34.439Z,94883.20
2018-04-08T22:32:34.922Z,94856.75
2018-04-08T22:47:34.778Z,94863.92
2018-04-08T23:02:36.923Z,94838.98
2018-04-08T23:17:36.666Z,94834.93
2018-04-08T23:32:34.671Z,94848.28
2018-04-08T23:47:34.636Z,94836.79
